Terminal Aerodrome Forecast
Issued by NWS

Current Version | Previous Version | Graphics & Text | Print | Product List | Glossary On
Versions: 1 2 3 4 5 6 7 8 9 10 11 12 13 14 15 16 17 18 19 20 21 22 23 24 25 26 27
000
FTUS41 KILN 120500
TAFLUK
TAF
KLUK 120537Z 1206/1306 02005KT P6SM FEW035 BKN250
      TEMPO 1209/1213 02006KT 5SM BR OVC028
     FM121300 05008KT P6SM OVC030
      TEMPO 1302/1306 SCT025=

USA.gov is the U.S. government's official web portal to all federal, state and local government web resources and services.